Time;durP1;ratioP1;P1;durP2;ratioP2;P2;SDS_P1;SDS_P2;PMS_P1;PMS_P2;Temp;Humidity;BMP_temperature;BMP_pressure;BME280_temperature;BME280_humidity;BME280_pressure;Samples;Min_cycle;Max_cycle;Signal;HPM_P1;HPM_P2
2022/03/01 00:01:45;;;;;;;76.10;38.50;;;;;;;-2.09;62.08;100797.13;106006;1274;96523;-70
2022/03/01 00:04:14;;;;;;;67.30;31.90;;;;;;;-2.09;62.45;100796.79;106102;1273;108396;-69
2022/03/01 00:06:43;;;;;;;66.20;30.00;;;;;;;-2.08;62.27;100794.00;106062;1273;97852;-69
2022/03/01 00:09:12;;;;;;;65.60;29.40;;;;;;;-2.11;62.35;100796.59;106217;1274;97949;-70
2022/03/01 00:11:40;;;;;;;63.40;30.10;;;;;;;-2.14;62.03;100794.30;106115;1273;112073;-71
2022/03/01 00:14:08;;;;;;;66.10;30.80;;;;;;;-2.19;62.15;100798.09;106100;1273;97937;-69
2022/03/01 00:16:37;;;;;;;59.30;27.50;;;;;;;-2.25;62.28;100795.44;106106;1273;107689;-70
2022/03/01 00:19:06;;;;;;;67.20;35.10;;;;;;;-2.27;62.25;100794.05;106106;1273;97856;-69
2022/03/01 00:21:34;;;;;;;58.90;28.00;;;;;;;-2.29;62.16;100793.67;106054;1273;97955;-68
2022/03/01 00:24:04;;;;;;;60.30;28.90;;;;;;;-2.29;62.24;100788.45;106105;1273;111825;-70
2022/03/01 00:26:36;;;;;;;53.50;25.30;;;;;;;-2.31;62.47;100784.45;106111;1273;95233;-70
2022/03/01 00:29:05;;;;;;;54.60;24.30;;;;;;;-2.34;62.54;100783.73;105951;1274;107400;-68
2022/03/01 00:31:37;;;;;;;56.40;24.80;;;;;;;-2.34;62.31;100787.73;105961;1274;98072;-69
2022/03/01 00:34:07;;;;;;;52.40;24.90;;;;;;;-2.34;62.36;100785.46;105995;1274;97945;-69
2022/03/01 00:36:39;;;;;;;53.60;25.70;;;;;;;-2.37;62.43;100784.73;106048;1274;111939;-70
2022/03/01 00:39:09;;;;;;;55.10;25.70;;;;;;;-2.38;62.55;100788.04;106048;1274;96981;-70
2022/03/01 00:41:42;;;;;;;60.80;25.50;;;;;;;-2.40;62.46;100783.33;106029;1274;108334;-69
2022/03/01 00:44:10;;;;;;;53.60;24.50;;;;;;;-2.42;62.61;100783.49;105986;1274;97960;-68
2022/03/01 00:46:40;;;;;;;53.40;24.60;;;;;;;-2.41;62.53;100785.93;106024;1274;97883;-69
2022/03/01 00:49:09;;;;;;;56.30;24.50;;;;;;;-2.41;62.51;100782.10;106040;1275;111717;-69
2022/03/01 00:51:39;;;;;;;57.10;25.50;;;;;;;-2.42;62.26;100781.23;105974;1274;97816;-69
2022/03/01 00:54:07;;;;;;;53.80;24.30;;;;;;;-2.42;62.35;100780.19;106021;1274;107880;-71
2022/03/01 00:56:36;;;;;;;55.10;25.30;;;;;;;-2.45;62.44;100785.38;106066;1274;98001;-69
2022/03/01 00:59:08;;;;;;;50.50;24.30;;;;;;;-2.45;62.58;100787.82;106019;1275;95426;-69
2022/03/01 01:01:38;;;;;;;52.20;23.20;;;;;;;-2.47;62.29;100783.98;106016;1274;111542;-69
2022/03/01 01:04:10;;;;;;;55.30;24.00;;;;;;;-2.49;62.40;100787.27;106007;1275;95190;-70
2022/03/01 01:06:40;;;;;;;53.90;23.50;;;;;;;-2.54;62.25;100781.83;105949;1277;108481;-69
2022/03/01 01:09:13;;;;;;;52.60;25.50;;;;;;;-2.58;62.23;100781.11;106019;1276;97851;-70
2022/03/01 01:11:43;;;;;;;60.10;24.60;;;;;;;-2.60;62.28;100781.60;106058;1274;97950;-70
2022/03/01 01:14:12;;;;;;;52.40;24.20;;;;;;;-2.62;62.38;100780.02;106062;1276;111488;-72
2022/03/01 01:16:43;;;;;;;54.60;25.00;;;;;;;-2.62;62.32;100779.50;106146;1274;97872;-72
2022/03/01 01:19:13;;;;;;;51.10;22.90;;;;;;;-2.64;62.41;100777.23;106053;1274;108734;-70
2022/03/01 01:24:30;;;;;;;52.30;24.20;;;;;;;-2.67;62.56;100778.77;106099;1274;95272;-69
2022/03/01 01:26:58;;;;;;;46.00;23.30;;;;;;;-2.69;62.25;100774.57;105998;1274;111914;-68
2022/03/01 01:29:27;;;;;;;47.60;22.70;;;;;;;-2.73;62.29;100775.08;106115;1274;97875;-71
2022/03/01 01:31:56;;;;;;;49.80;22.90;;;;;;;-2.76;62.42;100775.38;106008;1274;108293;-69
2022/03/01 01:34:25;;;;;;;50.90;22.90;;;;;;;-2.78;62.30;100774.48;106058;1275;97935;-70
2022/03/01 01:36:53;;;;;;;46.90;21.60;;;;;;;-2.81;62.47;100770.81;106007;1274;97885;-69
2022/03/01 01:39:22;;;;;;;46.70;19.90;;;;;;;-2.85;62.35;100774.42;106003;1274;111913;-68
2022/03/01 01:41:51;;;;;;;49.00;22.60;;;;;;;-2.88;62.36;100776.33;106069;1274;97974;-68
2022/03/01 01:44:18;;;;;;;48.70;20.40;;;;;;;-2.90;62.47;100772.30;106073;1274;108466;-68
2022/03/01 01:46:50;;;;;;;46.80;20.50;;;;;;;-2.92;62.34;100777.31;105963;1274;98468;-68
2022/03/01 01:49:21;;;;;;;49.10;23.60;;;;;;;-2.93;62.24;100778.34;106040;1274;95339;-68
2022/03/01 01:51:50;;;;;;;45.40;22.10;;;;;;;-2.94;62.62;100777.46;106115;1275;111588;-70
2022/03/01 01:54:21;;;;;;;42.80;20.80;;;;;;;-2.96;62.36;100776.40;106069;1274;95609;-70
2022/03/01 01:56:48;;;;;;;50.90;22.30;;;;;;;-3.00;62.66;100781.75;105980;1274;108368;-69
2022/03/01 01:59:16;;;;;;;45.00;22.40;;;;;;;-3.03;62.52;100781.36;106082;1274;97889;-68
2022/03/01 02:01:44;;;;;;;48.30;22.30;;;;;;;-3.06;62.56;100780.98;106062;1274;97943;-69
2022/03/01 02:04:13;;;;;;;49.30;20.50;;;;;;;-3.07;62.63;100778.40;105973;1274;112018;-69
2022/03/01 02:06:54;;;;;;;51.00;22.00;;;;;;;-3.08;62.47;100773.35;106096;1274;95273;-69
2022/03/01 02:09:22;;;;;;;50.90;23.50;;;;;;;-3.09;62.54;100771.76;106117;1274;107777;-69
2022/03/01 02:11:51;;;;;;;55.20;22.20;;;;;;;-3.10;62.67;100769.31;106013;1274;97829;-69
2022/03/01 02:14:19;;;;;;;50.40;21.50;;;;;;;-3.10;62.47;100767.23;106032;1274;95219;-70
2022/03/01 02:16:50;;;;;;;46.30;21.40;;;;;;;-3.09;62.70;100761.69;106112;1274;111990;-70
2022/03/01 02:19:20;;;;;;;44.00;19.80;;;;;;;-3.07;62.80;100761.88;106049;1274;95207;-69
2022/03/01 02:21:55;;;;;;;45.40;20.20;;;;;;;-3.06;62.88;100760.33;106074;1274;108486;-71
2022/03/01 02:24:27;;;;;;;46.10;19.90;;;;;;;-3.05;62.57;100756.52;106127;1274;97977;-68
2022/03/01 02:27:05;;;;;;;49.00;21.00;;;;;;;-3.04;62.77;100756.35;106084;1274;97875;-68
2022/03/01 02:29:34;;;;;;;49.30;22.60;;;;;;;-3.02;62.80;100752.91;106161;1274;111399;-69
2022/03/01 02:32:07;;;;;;;48.80;23.20;;;;;;;-3.00;62.57;100754.84;106060;1274;97984;-68
2022/03/01 02:34:37;;;;;;;45.90;20.40;;;;;;;-3.03;62.64;100753.42;106137;1275;106645;-68
2022/03/01 02:37:06;;;;;;;51.10;22.60;;;;;;;-3.04;62.80;100755.14;106032;1274;97976;-69
2022/03/01 02:39:36;;;;;;;50.40;23.80;;;;;;;-3.06;62.80;100754.25;106008;1274;97861;-69
2022/03/01 02:42:06;;;;;;;50.60;23.40;;;;;;;-3.10;62.67;100752.99;105980;1274;112034;-68
2022/03/01 02:44:37;;;;;;;51.00;23.00;;;;;;;-3.13;62.88;100752.80;106040;1274;97946;-69
2022/03/01 02:47:06;;;;;;;50.70;25.00;;;;;;;-3.12;62.93;100751.94;106033;1274;108361;-68
2022/03/01 02:49:35;;;;;;;52.20;24.50;;;;;;;-3.11;62.88;100748.30;106141;1274;98030;-68
2022/03/01 02:52:05;;;;;;;52.50;25.10;;;;;;;-3.09;62.92;100750.41;106021;1276;95200;-68
2022/03/01 02:54:33;;;;;;;58.20;24.60;;;;;;;-3.08;62.82;100746.96;105923;1277;111371;-69
2022/03/01 02:57:02;;;;;;;51.80;25.80;;;;;;;-3.07;63.03;100750.42;105831;1277;97960;-70
2022/03/01 02:59:32;;;;;;;49.40;24.20;;;;;;;-3.05;62.88;100749.23;105884;1278;107429;-70
2022/03/01 03:02:01;;;;;;;50.90;25.60;;;;;;;-3.04;62.94;100749.77;106003;1277;97941;-70
2022/03/01 03:04:30;;;;;;;51.00;24.20;;;;;;;-3.03;62.78;100748.55;105878;1277;95741;-68
2022/03/01 03:07:00;;;;;;;52.20;25.50;;;;;;;-3.02;62.93;100747.52;105875;1278;111958;-70
2022/03/01 03:09:28;;;;;;;57.20;25.40;;;;;;;-3.01;63.01;100750.49;105881;1277;95420;-69
2022/03/01 03:11:57;;;;;;;59.40;27.40;;;;;;;-3.01;62.75;100747.53;105989;1277;108430;-69
2022/03/01 03:14:25;;;;;;;55.80;25.20;;;;;;;-3.00;62.94;100749.63;105885;1277;97869;-70
2022/03/01 03:16:53;;;;;;;54.30;25.40;;;;;;;-3.02;62.97;100754.98;105892;1278;97881;-70
2022/03/01 03:19:22;;;;;;;56.00;24.90;;;;;;;-3.06;62.99;100756.18;105950;1278;112006;-68
2022/03/01 03:21:52;;;;;;;55.20;25.40;;;;;;;-3.08;62.79;100758.23;105920;1277;97877;-70
2022/03/01 03:24:22;;;;;;;52.80;26.00;;;;;;;-3.10;62.95;100754.39;105911;1278;107994;-69
2022/03/01 03:26:51;;;;;;;55.80;26.40;;;;;;;-3.11;62.92;100753.17;105902;1278;97974;-70
2022/03/01 03:29:19;;;;;;;53.80;25.30;;;;;;;-3.10;62.91;100751.61;105855;1278;98588;-69
2022/03/01 03:31:56;;;;;;;51.30;22.90;;;;;;;-3.13;62.83;100749.85;105873;1278;112003;-69
2022/03/01 03:34:26;;;;;;;52.40;23.20;;;;;;;-3.15;63.04;100746.18;105804;1277;164869;-71
2022/03/01 03:36:54;;;;;;;54.40;26.30;;;;;;;-3.16;62.77;100743.05;105910;1277;108262;-70
2022/03/01 03:39:23;;;;;;;58.40;27.20;;;;;;;-3.17;62.88;100742.70;105898;1277;97838;-68
2022/03/01 03:41:52;;;;;;;51.20;25.30;;;;;;;-3.17;63.20;100737.48;105911;1277;95282;-67
2022/03/01 03:44:20;;;;;;;53.20;25.70;;;;;;;-3.19;63.17;100737.81;105964;1277;111820;-69
2022/03/01 03:46:50;;;;;;;56.10;23.80;;;;;;;-3.22;63.03;100734.65;105993;1277;98536;-69
2022/03/01 03:49:19;;;;;;;51.30;24.60;;;;;;;-3.25;63.17;100734.63;105938;1278;108380;-69
2022/03/01 03:51:49;;;;;;;49.90;24.80;;;;;;;-3.26;63.08;100732.02;105911;1277;97773;-69
2022/03/01 03:54:17;;;;;;;55.60;25.50;;;;;;;-3.27;63.11;100726.45;105897;1278;97945;-70
2022/03/01 03:56:47;;;;;;;49.70;24.00;;;;;;;-3.28;63.21;100726.44;106002;1276;111935;-68
2022/03/01 03:59:15;;;;;;;54.20;26.40;;;;;;;-3.32;63.32;100726.41;106024;1276;97903;-70
2022/03/01 04:01:44;;;;;;;58.80;26.10;;;;;;;-3.36;63.12;100719.93;106052;1274;108193;-71
2022/03/01 04:04:14;;;;;;;52.60;25.00;;;;;;;-3.40;63.29;100714.49;106074;1274;97832;-70
2022/03/01 04:06:44;;;;;;;56.00;26.30;;;;;;;-3.43;63.30;100713.77;106073;1276;97877;-69
2022/03/01 04:09:14;;;;;;;57.00;24.70;;;;;;;-3.46;63.22;100718.42;106015;1276;112019;-68
2022/03/01 04:11:43;;;;;;;54.80;23.60;;;;;;;-3.48;63.25;100715.64;106103;1276;97947;-70
2022/03/01 04:14:11;;;;;;;53.50;24.30;;;;;;;-3.51;63.26;100712.83;106005;1276;108392;-70
2022/03/01 04:16:42;;;;;;;53.00;25.00;;;;;;;-3.51;63.27;100714.23;106003;1276;97971;-69
2022/03/01 04:19:12;;;;;;;57.80;26.60;;;;;;;-3.49;63.31;100717.20;106018;1276;95321;-68
2022/03/01 04:21:40;;;;;;;52.50;25.70;;;;;;;-3.49;63.22;100719.27;106034;1277;111901;-68
2022/03/01 04:24:09;;;;;;;54.50;24.90;;;;;;;-3.48;63.31;100719.98;106044;1276;95293;-68
2022/03/01 04:26:40;;;;;;;57.90;27.70;;;;;;;-3.51;63.24;100718.56;106019;1274;108445;-69
2022/03/01 04:29:10;;;;;;;54.60;27.70;;;;;;;-3.54;63.26;100714.54;106022;1276;95269;-69
2022/03/01 04:31:38;;;;;;;60.20;28.30;;;;;;;-3.55;63.32;100712.45;106029;1276;97865;-69
2022/03/01 04:34:07;;;;;;;56.20;25.30;;;;;;;-3.54;63.41;100711.40;105987;1276;112003;-69
2022/03/01 04:36:35;;;;;;;57.80;26.10;;;;;;;-3.52;63.40;100710.05;106007;1277;97880;-70
2022/03/01 04:39:02;;;;;;;53.50;25.40;;;;;;;-3.52;63.39;100707.96;106009;1276;109187;-69
2022/03/01 04:41:32;;;;;;;60.60;26.70;;;;;;;-3.53;63.50;100705.36;105884;1278;97899;-69
2022/03/01 04:43:59;;;;;;;53.60;24.20;;;;;;;-3.53;63.38;100702.22;105994;1277;97919;-68
2022/03/01 04:46:29;;;;;;;59.90;27.00;;;;;;;-3.52;63.43;100700.68;105968;1277;112114;-68
2022/03/01 04:48:58;;;;;;;54.10;25.90;;;;;;;-3.51;63.61;100698.61;105988;1277;96659;-69
2022/03/01 04:51:27;;;;;;;59.20;27.30;;;;;;;-3.49;63.47;100699.85;105945;1277;106904;-69
2022/03/01 04:53:54;;;;;;;54.10;26.10;;;;;;;-3.48;63.59;100703.16;106067;1275;97995;-69
2022/03/01 04:56:24;;;;;;;56.10;25.30;;;;;;;-3.49;63.63;100702.97;106145;1275;97883;-69
2022/03/01 04:58:52;;;;;;;57.40;24.90;;;;;;;-3.51;63.27;100705.73;106097;1277;111448;-68
2022/03/01 05:01:20;;;;;;;54.10;24.90;;;;;;;-3.53;63.40;100707.09;106006;1277;97857;-68
2022/03/01 05:03:49;;;;;;;56.20;24.30;;;;;;;-3.54;63.56;100703.08;105979;1277;109297;-69
2022/03/01 05:06:18;;;;;;;55.40;24.90;;;;;;;-3.52;63.63;100703.45;105933;1277;98116;-69
2022/03/01 05:08:47;;;;;;;52.10;25.10;;;;;;;-3.52;63.61;100698.42;106053;1277;95287;-68
2022/03/01 05:11:15;;;;;;;53.30;25.20;;;;;;;-3.51;63.50;100698.09;106022;1278;111991;-71
2022/03/01 05:13:42;;;;;;;51.30;25.10;;;;;;;-3.50;63.60;100700.20;105998;1277;97959;-68
2022/03/01 05:16:10;;;;;;;52.70;25.20;;;;;;;-3.50;63.47;100704.52;106006;1277;108337;-69
2022/03/01 05:18:41;;;;;;;57.80;26.90;;;;;;;-3.52;63.60;100706.05;106001;1277;97845;-67
2022/03/01 05:21:09;;;;;;;55.20;24.00;;;;;;;-3.53;63.67;100703.96;106113;1278;97841;-68
2022/03/01 05:23:37;;;;;;;56.90;27.40;;;;;;;-3.57;63.66;100711.89;105965;1277;111712;-70
2022/03/01 05:26:10;;;;;;;60.10;26.60;;;;;;;-3.59;63.61;100710.65;106081;1277;97112;-69
2022/03/01 05:28:38;;;;;;;60.50;28.00;;;;;;;-3.61;63.56;100709.95;106050;1277;108424;-69
2022/03/01 05:31:05;;;;;;;61.30;27.90;;;;;;;-3.59;63.54;100711.86;106138;1277;96610;-69
2022/03/01 05:33:35;;;;;;;58.70;27.10;;;;;;;-3.57;63.66;100711.89;106096;1277;98014;-69
2022/03/01 05:36:04;;;;;;;65.20;29.20;;;;;;;-3.58;63.72;100713.77;106123;1274;111131;-68
2022/03/01 05:38:32;;;;;;;68.30;30.40;;;;;;;-3.59;63.84;100712.91;106150;1274;97943;-68
2022/03/01 05:41:00;;;;;;;61.50;29.80;;;;;;;-3.60;63.81;100716.02;106089;1274;108411;-69
2022/03/01 05:43:33;;;;;;;71.40;32.10;;;;;;;-3.64;63.68;100718.22;106071;1277;96864;-68
2022/03/01 05:46:03;;;;;;;67.50;30.90;;;;;;;-3.69;63.56;100724.59;106126;1277;97977;-68
2022/03/01 05:48:32;;;;;;;68.20;31.30;;;;;;;-3.70;63.81;100723.88;105981;1277;111362;-69
2022/03/01 05:51:01;;;;;;;66.10;29.80;;;;;;;-3.71;63.75;100726.28;106020;1277;97908;-68
2022/03/01 05:53:32;;;;;;;66.90;32.40;;;;;;;-3.73;63.71;100728.17;105985;1274;107617;-69
2022/03/01 05:56:01;;;;;;;66.60;30.50;;;;;;;-3.75;63.63;100730.40;105938;1274;98565;-70
2022/03/01 05:58:29;;;;;;;66.00;33.20;;;;;;;-3.75;64.03;100732.84;106248;1274;97937;-68
2022/03/01 06:00:57;;;;;;;67.80;30.60;;;;;;;-3.74;63.75;100732.85;106082;1274;112056;-68
2022/03/01 06:03:26;;;;;;;70.20;32.50;;;;;;;-3.71;63.80;100730.97;106184;1274;98606;-69
2022/03/01 06:05:56;;;;;;;73.30;32.00;;;;;;;-3.71;63.80;100731.48;106131;1274;108453;-69
2022/03/01 06:08:23;;;;;;;66.90;31.80;;;;;;;-3.71;63.85;100729.77;106060;1274;98002;-69
2022/03/01 06:10:52;;;;;;;68.80;31.60;;;;;;;-3.71;63.83;100723.70;106069;1274;97858;-69
2022/03/01 06:13:20;;;;;;;67.10;32.30;;;;;;;-3.71;63.90;100727.69;105976;1274;111978;-69
2022/03/01 06:15:48;;;;;;;70.60;31.80;;;;;;;-3.71;63.89;100725.77;106003;1273;98534;-68
2022/03/01 06:18:18;;;;;;;66.20;32.10;;;;;;;-3.71;63.96;100729.08;106002;1274;108382;-69
2022/03/01 06:20:50;;;;;;;69.20;31.20;;;;;;;-3.68;64.14;100726.16;105985;1274;97965;-68
2022/03/01 06:23:17;;;;;;;77.40;33.60;;;;;;;-3.64;64.23;100727.23;105931;1274;97850;-69
2022/03/01 06:25:45;;;;;;;71.80;31.80;;;;;;;-3.61;64.20;100728.48;105988;1274;111948;-69
2022/03/01 06:28:15;;;;;;;69.40;34.20;;;;;;;-3.57;64.17;100727.84;106098;1274;97924;-68
2022/03/01 06:30:43;;;;;;;60.60;29.60;;;;;;;-3.51;64.26;100730.86;106003;1274;108341;-69
2022/03/01 06:33:11;;;;;;;70.90;33.40;;;;;;;-3.46;64.34;100726.23;105982;1274;97972;-68
2022/03/01 06:35:39;;;;;;;72.30;32.70;;;;;;;-3.42;64.35;100726.63;105976;1274;97985;-70
2022/03/01 06:38:08;;;;;;;75.20;33.70;;;;;;;-3.36;64.28;100724.27;106068;1274;111708;-69
2022/03/01 06:40:39;;;;;;;67.00;33.20;;;;;;;-3.28;64.33;100727.14;105922;1274;96348;-68
2022/03/01 06:43:09;;;;;;;75.30;36.10;;;;;;;-3.24;64.38;100727.16;105947;1274;109429;-69
2022/03/01 06:45:38;;;;;;;73.80;34.20;;;;;;;-3.20;64.49;100725.99;105969;1274;98480;-69
2022/03/01 06:48:06;;;;;;;73.70;33.30;;;;;;;-3.18;64.32;100719.61;106061;1274;95163;-68
2022/03/01 06:50:36;;;;;;;72.00;34.60;;;;;;;-3.12;64.39;100713.77;105988;1275;112191;-70
2022/03/01 06:53:06;;;;;;;67.50;30.70;;;;;;;-3.07;64.43;100705.65;106092;1274;96239;-68
2022/03/01 06:55:34;;;;;;;71.00;30.40;;;;;;;-3.06;64.30;100711.39;105939;1274;109389;-69
2022/03/01 06:58:02;;;;;;;62.60;30.10;;;;;;;-3.00;64.65;100710.92;105927;1275;97942;-69
2022/03/01 07:00:29;;;;;;;69.10;29.00;;;;;;;-2.94;64.53;100710.27;106063;1274;95171;-70
2022/03/01 07:02:59;;;;;;;67.70;31.30;;;;;;;-2.93;64.50;100713.43;106154;1274;111952;-69
2022/03/01 07:05:31;;;;;;;57.30;27.40;;;;;;;-2.85;64.37;100714.00;106021;1275;95323;-70
2022/03/01 07:07:59;;;;;;;61.80;27.50;;;;;;;-2.79;64.77;100711.45;106022;1274;108259;-69
2022/03/01 07:10:29;;;;;;;55.70;27.90;;;;;;;-2.71;64.69;100705.80;106061;1274;95276;-69
2022/03/01 07:12:57;;;;;;;55.10;26.80;;;;;;;-2.64;64.66;100708.27;106035;1274;97849;-70
2022/03/01 07:15:27;;;;;;;59.80;27.00;;;;;;;-2.59;64.80;100705.02;106051;1270;112080;-69
2022/03/01 07:17:54;;;;;;;64.80;27.70;;;;;;;-2.52;64.55;100705.23;106008;1274;98142;-69
2022/03/01 07:20:22;;;;;;;56.50;26.50;;;;;;;-2.46;64.68;100705.80;105996;1274;108123;-69
2022/03/01 07:22:50;;;;;;;52.10;24.90;;;;;;;-2.42;64.60;100706.85;105910;1274;97970;-70
2022/03/01 07:25:18;;;;;;;54.40;25.80;;;;;;;-2.40;64.62;100708.63;106057;1273;97018;-70
2022/03/01 07:27:50;;;;;;;55.10;24.90;;;;;;;-2.37;64.93;100707.94;106008;1274;111998;-70
2022/03/01 07:30:21;;;;;;;54.70;25.10;;;;;;;-2.33;64.59;100704.69;106057;1273;96327;-69
2022/03/01 07:32:55;;;;;;;48.80;22.80;;;;;;;-2.24;65.02;100702.29;106047;1274;108801;-69
2022/03/01 07:35:25;;;;;;;49.00;21.50;;;;;;;-2.15;65.07;100700.43;106019;1274;96390;-70
2022/03/01 07:37:56;;;;;;;49.90;24.40;;;;;;;-2.08;64.92;100696.65;106009;1273;97903;-67
2022/03/01 07:40:27;;;;;;;56.10;25.60;;;;;;;-1.98;65.21;100704.35;106042;1274;109935;-69
2022/03/01 07:42:57;;;;;;;47.00;23.20;;;;;;;-1.87;65.08;100702.16;106035;1273;98033;-69
2022/03/01 07:45:27;;;;;;;48.80;22.80;;;;;;;-1.81;64.92;100700.95;106057;1274;108807;-70
2022/03/01 07:47:58;;;;;;;52.70;25.10;;;;;;;-1.73;64.77;100702.38;105921;1276;98024;-69
2022/03/01 07:50:26;;;;;;;48.70;24.90;;;;;;;-1.61;65.18;100703.29;106102;1274;97973;-64
2022/03/01 07:52:56;;;;;;;50.10;23.60;;;;;;;-1.48;65.05;100703.52;106080;1274;112077;-68
2022/03/01 07:55:24;;;;;;;51.80;24.80;;;;;;;-1.33;65.37;100707.90;105970;1274;97973;-70
2022/03/01 07:57:53;;;;;;;56.50;24.10;;;;;;;-1.19;65.54;100700.63;106107;1273;108365;-69
2022/03/01 08:00:25;;;;;;;47.30;25.40;;;;;;;-1.04;65.43;100704.48;106105;1273;98553;-69
2022/03/01 08:02:55;;;;;;;58.10;28.10;;;;;;;-0.91;65.34;100700.31;106128;1274;97865;-69
2022/03/01 08:05:25;;;;;;;56.30;27.40;;;;;;;-0.79;65.22;100700.83;106148;1273;110956;-70
2022/03/01 08:07:58;;;;;;;59.10;26.00;;;;;;;-0.66;65.24;100698.41;106171;1274;97983;-72
2022/03/01 08:10:29;;;;;;;53.20;25.10;;;;;;;-0.51;65.61;100694.89;106062;1275;107733;-70
2022/03/01 08:12:59;;;;;;;51.80;25.60;;;;;;;-0.39;65.53;100692.96;106091;1273;96400;-70
2022/03/01 08:15:27;;;;;;;60.30;27.80;;;;;;;-0.27;65.58;100695.21;106155;1273;97885;-70
2022/03/01 08:18:00;;;;;;;58.40;29.20;;;;;;;-0.14;65.66;100694.66;106116;1274;111831;-68
2022/03/01 08:20:30;;;;;;;58.90;30.10;;;;;;;-0.05;65.56;100692.02;106084;1276;95622;-69
2022/03/01 08:23:02;;;;;;;59.70;28.50;;;;;;;0.01;65.38;100692.70;106130;1273;107625;-69
2022/03/01 08:25:29;;;;;;;52.90;26.40;;;;;;;0.07;65.51;100696.69;106065;1273;98005;-69
2022/03/01 08:28:00;;;;;;;58.90;28.10;;;;;;;0.20;65.53;100690.37;106078;1274;97995;-71
2022/03/01 08:30:35;;;;;;;55.70;27.90;;;;;;;0.34;65.60;100686.13;105990;1274;112677;-69
2022/03/01 08:33:05;;;;;;;53.00;28.10;;;;;;;0.41;65.38;100686.44;106009;1273;97849;-70
2022/03/01 08:35:40;;;;;;;53.30;26.70;;;;;;;0.39;65.30;100689.95;105999;1274;108440;-70
2022/03/01 08:38:10;;;;;;;55.30;26.70;;;;;;;0.47;65.45;100694.09;105983;1274;95280;-69
2022/03/01 08:40:43;;;;;;;51.80;24.30;;;;;;;0.61;65.60;100690.52;106086;1273;97851;-72
2022/03/01 08:43:14;;;;;;;51.40;24.70;;;;;;;0.71;65.61;100685.58;106041;1273;111447;-70
2022/03/01 08:45:45;;;;;;;47.20;22.60;;;;;;;0.79;65.62;100685.89;106115;1273;97876;-70
2022/03/01 08:48:13;;;;;;;49.50;23.80;;;;;;;0.88;65.66;100679.35;106159;1273;107706;-69
2022/03/01 08:50:43;;;;;;;50.30;23.70;;;;;;;0.97;65.54;100677.38;106017;1273;97960;-69
2022/03/01 08:53:21;;;;;;;51.60;24.30;;;;;;;1.08;65.67;100676.59;106020;1274;97977;-69
2022/03/01 08:55:49;;;;;;;51.50;25.70;;;;;;;1.17;65.48;100672.33;106074;1273;112104;-69
2022/03/01 08:58:21;;;;;;;53.70;25.50;;;;;;;1.26;65.62;100673.99;106091;1273;97864;-69
2022/03/01 09:00:52;;;;;;;49.10;24.80;;;;;;;1.45;65.70;100668.06;106055;1273;108353;-69
2022/03/01 09:03:26;;;;;;;53.40;24.60;;;;;;;1.64;65.57;100662.45;106086;1273;95212;-69
2022/03/01 09:06:15;;;;;;;48.30;23.90;;;;;;;1.84;65.71;100662.41;106135;1273;97967;-70
2022/03/01 09:08:43;;;;;;;51.30;25.00;;;;;;;2.03;65.82;100660.45;106090;1274;111769;-70
2022/03/01 09:11:16;;;;;;;50.80;23.90;;;;;;;2.26;65.70;100662.98;106057;1274;97899;-70
2022/03/01 09:13:48;;;;;;;43.30;21.90;;;;;;;2.48;65.70;100662.67;105965;1274;107674;-69
2022/03/01 09:16:18;;;;;;;45.40;22.00;;;;;;;2.62;65.94;100660.23;105986;1274;96677;-69
2022/03/01 09:18:46;;;;;;;53.20;24.60;;;;;;;2.73;65.70;100658.48;105992;1274;97893;-70
2022/03/01 09:21:16;;;;;;;41.50;18.90;;;;;;;2.83;65.77;100660.61;106915;1276;112536;-69
2022/03/01 09:23:46;;;;;;;37.20;17.30;;;;;;;2.87;65.86;100658.98;105962;1276;98074;-68
2022/03/01 09:26:15;;;;;;;32.20;15.30;;;;;;;2.93;65.64;100659.58;106241;1276;108211;-69
2022/03/01 09:28:44;;;;;;;35.70;17.40;;;;;;;3.04;65.54;100659.42;106410;1274;97986;-69
2022/03/01 09:31:12;;;;;;;34.30;14.70;;;;;;;3.16;65.82;100657.47;106052;1276;97891;-68
2022/03/01 09:33:43;;;;;;;40.60;19.20;;;;;;;3.28;65.56;100654.10;107921;1274;112045;-68
2022/03/01 09:36:13;;;;;;;42.10;18.90;;;;;;;3.32;65.28;100646.51;106925;1274;97927;-69
2022/03/01 09:38:45;;;;;;;41.50;18.20;;;;;;;3.44;65.60;100645.76;105891;1274;108339;-69
2022/03/01 09:41:17;;;;;;;41.80;17.90;;;;;;;3.64;65.30;100641.37;106033;1276;97028;-69
2022/03/01 09:43:48;;;;;;;41.50;17.00;;;;;;;3.73;65.29;100637.86;106054;1274;97832;-69
2022/03/01 09:46:16;;;;;;;33.10;14.10;;;;;;;3.85;65.28;100636.41;106045;1274;112040;-69
2022/03/01 09:48:46;;;;;;;26.50;10.70;;;;;;;4.01;65.45;100629.60;106037;1274;95189;-70
2022/03/01 09:51:19;;;;;;;25.20;9.90;;;;;;;4.13;65.36;100629.51;106002;1274;108300;-69
2022/03/01 09:53:53;;;;;;;18.60;6.50;;;;;;;4.24;65.63;100623.16;106026;1274;95233;-69
2022/03/01 09:56:22;;;;;;;21.40;7.50;;;;;;;4.24;65.10;100616.81;106024;1274;98541;-72
2022/03/01 09:58:55;;;;;;;18.30;6.70;;;;;;;4.22;64.87;100613.71;106058;1274;111372;-70
2022/03/01 10:01:26;;;;;;;20.10;6.90;;;;;;;4.22;64.71;100614.23;106103;1274;97874;-70
2022/03/01 10:04:07;;;;;;;20.40;6.30;;;;;;;4.28;64.50;100607.77;106058;1274;107806;-69
2022/03/01 10:06:44;;;;;;;20.40;7.20;;;;;;;4.30;64.53;100607.91;106195;1274;97980;-70
2022/03/01 10:09:20;;;;;;;18.70;7.00;;;;;;;4.28;63.64;100603.40;106150;1273;95180;-69
2022/03/01 10:11:52;;;;;;;20.00;7.90;;;;;;;4.25;64.46;100603.11;106094;1274;109746;-68
2022/03/01 10:14:37;;;;;;;19.50;6.80;;;;;;;4.35;64.76;100602.19;106163;1274;97938;-69
2022/03/01 10:17:16;;;;;;;18.70;6.80;;;;;;;4.46;64.54;100594.39;106042;1276;105900;-68
2022/03/01 10:19:44;;;;;;;18.50;7.00;;;;;;;4.56;63.67;100588.01;106037;1274;95212;-69
2022/03/01 10:22:17;;;;;;;16.70;6.50;;;;;;;4.63;63.78;100589.60;106082;1274;95163;-69
2022/03/01 10:24:51;;;;;;;17.60;6.60;;;;;;;4.69;63.27;100583.67;106109;1274;111506;-69
2022/03/01 10:27:28;;;;;;;19.70;6.80;;;;;;;4.77;62.81;100586.45;106007;1274;97141;-69
2022/03/01 10:29:56;;;;;;;21.70;7.90;;;;;;;4.91;62.94;100578.54;106056;1274;107695;-69
2022/03/01 10:32:27;;;;;;;20.70;6.40;;;;;;;5.06;63.49;100573.08;106038;1274;96362;-70
2022/03/01 10:35:11;;;;;;;19.30;6.70;;;;;;;5.23;63.32;100569.84;106021;1274;97987;-68
2022/03/01 10:37:42;;;;;;;20.30;7.50;;;;;;;5.31;63.36;100562.73;106079;1276;111206;-68
2022/03/01 10:40:15;;;;;;;21.40;8.30;;;;;;;5.38;63.52;100560.11;106147;1274;97964;-70
2022/03/01 10:43:17;;;;;;;21.30;7.40;;;;;;;5.38;61.97;100557.64;106130;1274;106903;-70
2022/03/01 10:45:51;;;;;;;21.30;7.30;;;;;;;5.32;63.49;100551.82;106181;1274;97870;-69
2022/03/01 10:48:28;;;;;;;22.20;9.40;;;;;;;5.29;63.40;100552.09;106092;1274;96853;-69
2022/03/01 10:51:10;;;;;;;21.30;8.20;;;;;;;5.20;63.40;100550.75;106071;1274;111419;-71
2022/03/01 10:53:45;;;;;;;18.80;8.00;;;;;;;5.04;63.28;100539.20;106094;1274;98496;-70
2022/03/01 10:56:17;;;;;;;20.20;7.40;;;;;;;4.92;62.80;100538.45;106032;1274;107843;-70
2022/03/01 10:58:49;;;;;;;20.30;8.10;;;;;;;4.87;63.16;100537.34;106166;1274;97900;-67
2022/03/01 11:01:21;;;;;;;22.10;8.40;;;;;;;4.89;63.23;100527.45;106141;1274;97736;-70
2022/03/01 11:03:51;;;;;;;18.60;6.30;;;;;;;4.91;63.17;100520.89;106128;1274;111298;-71
2022/03/01 11:06:26;;;;;;;20.60;7.60;;;;;;;4.91;63.19;100515.44;106122;1274;95318;-69
2022/03/01 11:08:55;;;;;;;21.10;7.60;;;;;;;4.94;63.03;100508.35;106128;1274;107794;-69
2022/03/01 11:11:29;;;;;;;21.50;7.60;;;;;;;4.94;62.69;100504.98;106094;1274;96406;-69
2022/03/01 11:13:57;;;;;;;26.10;8.80;;;;;;;4.85;62.28;100501.02;106081;1274;95243;-70
2022/03/01 11:16:39;;;;;;;21.10;7.50;;;;;;;4.76;62.01;100494.05;106158;1274;112027;-70
2022/03/01 11:19:22;;;;;;;21.10;7.50;;;;;;;4.56;62.04;100497.70;106089;1274;97835;-71